Data for 08/08/2018

Time Sea-Level Adjusted Pressure Absolute Pressure Temperature Relative Humidity Dew Point   
(mb) (inHg) (mb) (inHg) (C) (F) (%) (C) (F)
00:05 1022 30.18 852 25.16 16.9 62.5 32 0.4 32.8
00:10 1022 30.18 852 25.16 17.5 63.4 32 0.6 33.1
00:15 1023 30.21 852 25.16 17.6 63.6 33 1.3 34.3
00:20 1023 30.21 852 25.16 17.2 63 33 1.1 34
00:25 1023 30.21 852 25.16 16.9 62.4 35 1.4 34.6
00:30 1023 30.21 852 25.16 16.7 62 34 0.8 33.5
00:35 1023 30.21 852 25.16 16.9 62.3 34 1.2 34.2
00:40 1023 30.21 852 25.16 16.7 62 36 1.5 34.8
00:45 1023 30.21 852 25.16 16.4 61.6 34 0.6 33.1
00:50 1023 30.21 852 25.16 16.7 62.1 33 0.6 33.1
00:55 1023 30.21 852 25.16 16.7 62.1 35 1.1 34
01:00 1023 30.21 852 25.16 16.5 61.6 35 1 33.8
01:05 1023 30.21 852 25.16 16.4 61.5 36 1.3 34.3
01:10 1023 30.21 852 25.16 16.3 61.3 34 0.4 32.7
01:15 1023 30.21 852 25.16 16.6 62 34 0.7 33.3
01:20 1023 30.21 852 25.16 16.6 61.8 35 1.1 33.9
01:25 1023 30.21 852 25.16 16.6 61.9 33 0.4 32.7
01:30 1023 30.21 852 25.16 16.7 62 34 1 33.8
01:35 1023 30.21 852 25.16 16.4 61.5 34 0.7 33.3
01:40 1023 30.21 852 25.16 16.3 61.4 36 1.2 34.2
01:45 1023 30.21 852 25.16 16.2 61.1 35 0.7 33.2
01:50 1023 30.21 852 25.16 16.4 61.5 36 1.2 34.2
01:55 1023 30.21 852 25.16 15.8 60.5 39 1.9 35.4
02:00 1023 30.21 852 25.16 15.3 59.6 40 1.8 35.3
02:05 1023 30.21 852 25.16 15.3 59.6 38 1.1 34
02:10 1023 30.21 852 25.16 15.4 59.8 39 1.6 34.8
02:15 1023 30.21 852 25.16 15.3 59.5 41 2.3 36.1
02:20 1023 30.21 852 25.16 14.8 58.6 41 1.9 35.4
02:25 1023 30.21 852 25.16 14.6 58.3 42 2 35.6
02:30 1023 30.21 852 25.16 14.5 58.1 43 2 35.7
02:35 1023 30.21 852 25.16 14.3 57.7 44 2.3 36.1
02:40 1023 30.21 852 25.16 14.2 57.5 42 1.7 35
02:45 1023 30.21 852 25.16 14.6 58.2 41 1.7 35
02:50 1023 30.21 852 25.16 14.5 58.2 42 1.9 35.5
02:55 1023 30.21 852 25.16 14.4 58 43 2.1 35.9
03:00 1023 30.21 852 25.16 14.4 57.9 42 1.8 35.2
03:05 1023 30.21 852 25.16 14.6 58.2 42 1.8 35.2
03:10 1023 30.21 852 25.16 14.6 58.2 41 1.6 34.9
03:15 1023 30.21 852 25.16 14.9 58.8 39 1 33.8
03:20 1023 30.21 852 25.16 15 59 41 1.8 35.3
03:25 1023 30.21 852 25.16 14.5 58.1 42 1.9 35.3
03:30 1023 30.21 852 25.16 14.2 57.6 42 1.7 35
03:35 1022 30.18 852 25.16 14.1 57.3 42 1.5 34.7
03:40 1023 30.21 852 25.16 14.3 57.7 43 1.8 35.2
03:45 1023 30.21 852 25.16 14.2 57.6 43 1.8 35.2
03:50 1023 30.21 852 25.16 14.2 57.6 41 1.4 34.5
03:55 1023 30.21 852 25.16 14.3 57.7 42 1.6 34.8
04:00 1023 30.21 852 25.16 14.4 57.9 41 1.6 34.8
04:05 1023 30.21 852 25.16 14.2 57.5 43 1.8 35.3
04:10 1023 30.21 852 25.16 13.9 57 42 1.4 34.5
04:15 1023 30.21 852 25.16 14.2 57.6 41 1.3 34.4
04:20 1023 30.21 852 25.16 14.2 57.5 43 1.8 35.3
04:25 1023 30.21 852 25.16 14 57.2 42 1.4 34.5
04:30 1023 30.21 852 25.16 14.3 57.7 42 1.5 34.6
04:35 1023 30.21 852 25.16 14.3 57.7 42 1.5 34.7
04:40 1023 30.21 852 25.16 14.2 57.5 43 1.7 35.1
04:45 1023 30.21 852 25.16 14.1 57.3 42 1.6 34.9
04:50 1023 30.21 852 25.16 14 57.2 42 1.4 34.4
04:55 1023 30.21 852 25.16 14.2 57.5 41 1.3 34.4
05:00 1023 30.21 852 25.16 14.4 57.9 40 1 33.7
05:05 1023 30.21 852 25.16 14.9 58.8 39 1.2 34.2
05:10 1023 30.21 852 25.16 14.9 58.9 38 0.9 33.6
05:15 1023 30.21 852 25.16 14.8 58.6 41 1.7 35
05:20 1023 30.21 852 25.16 14.5 58 42 1.9 35.4
05:25 1023 30.21 852 25.16 14.2 57.5 42 1.6 34.8
05:30 1023 30.21 852 25.16 14.1 57.3 43 1.8 35.3
05:35 1023 30.21 852 25.16 14.1 57.4 41 1.3 34.3
05:40 1023 30.21 852 25.16 14.3 57.7 41 1.2 34.1
05:45 1023 30.21 852 25.16 14.4 57.8 41 1.3 34.4
05:50 1023 30.21 852 25.16 14 57.2 43 1.7 35.1
05:55 1023 30.21 852 25.16 14.1 57.4 42 1.5 34.7
06:00 1023 30.21 852 25.16 13.5 56.4 48 2.8 37.1
06:05 1023 30.21 852 25.16 13.1 55.6 46 1.9 35.4
06:10 1023 30.21 852 25.16 13 55.5 47 2.1 35.8
06:15 1023 30.21 852 25.16 12.7 54.8 49 2.4 36.3
06:20 1023 30.21 852 25.16 12.9 55.3 44 1.1 34
06:25 1023 30.21 852 25.16 13.4 56.2 45 1.8 35.3
06:30 1023 30.21 852 25.16 13.5 56.3 43 1.3 34.3
06:35 1023 30.21 852 25.16 13.7 56.7 42 1.1 34
06:40 1023 30.21 852 25.16 14.1 57.4 43 1.8 35.2
06:45 1023 30.21 852 25.16 13.7 56.7 44 1.7 35.1
06:50 1023 30.21 852 25.16 13.6 56.4 44 1.7 35
06:55 1023 30.21 853 25.19 13.6 56.4 43 1.4 34.5
07:00 1023 30.21 853 25.19 13.8 56.9 40 0.6 33.1
07:05 1023 30.21 853 25.19 14.7 58.4 39 1 33.8
07:10 1023 30.21 853 25.19 14.9 58.8 39 1.3 34.4
07:15 1023 30.21 853 25.19 15 59 39 1.4 34.6
07:20 1023 30.21 853 25.19 14.9 58.8 40 1.6 34.9
07:25 1023 30.21 853 25.19 14.9 58.8 44 2.8 37.1
07:30 1024 30.24 853 25.19 14.9 58.8 43 2.4 36.3
07:35 1024 30.24 853 25.19 14.7 58.5 44 2.6 36.7
07:40 1024 30.24 853 25.19 14.9 58.8 41 2 35.6
07:45 1023 30.21 853 25.19 15 59.1 44 2.9 37.3
07:50 1024 30.24 853 25.19 15.2 59.3 48 4.2 39.5
07:55 1024 30.24 853 25.19 15.4 59.7 42 2.6 36.7
08:00 1024 30.24 853 25.19 15.5 60 41 2.4 36.3
08:05 1024 30.24 853 25.19 15.7 60.3 41 2.6 36.7
08:10 1024 30.24 853 25.19 16.2 61.1 41 3.1 37.6
08:15 1024 30.24 853 25.19 16.6 61.8 42 3.6 38.5
08:20 1024 30.24 853 25.19 16.9 62.3 41 3.6 38.4
08:25 1024 30.24 853 25.19 17.2 62.9 42 4.2 39.5
08:30 1024 30.24 853 25.19 17.6 63.6 39 3.8 38.8
08:35 1024 30.24 853 25.19 17.5 63.5 39 3.6 38.6
08:40 1024 30.24 853 25.19 17.7 63.9 36 2.5 36.4
08:45 1024 30.24 853 25.19 18.2 64.8 36 3 37.4
08:50 1024 30.24 853 25.19 18.6 65.5 36 3.5 38.3
08:55 1024 30.24 853 25.19 19.1 66.3 35 3.3 37.9
09:00 1024 30.24 853 25.19 19.7 67.4 34 3.3 38
09:05 1024 30.24 853 25.19 20.2 68.4 33 3.6 38.4
09:10 1024 30.24 853 25.19 20.5 68.9 32 3.6 38.5
09:15 1024 30.24 853 25.19 20.7 69.3 33 3.9 39
09:20 1024 30.24 853 25.19 20.5 69 33 3.7 38.6
09:25 1024 30.24 853 25.19 20.7 69.3 32 3.5 38.3
09:30 1024 30.24 853 25.19 20.8 69.4 33 4.2 39.5
09:35 1024 30.24 853 25.19 20.9 69.6 32 3.8 38.9
09:40 1024 30.24 853 25.19 21.4 70.6 31 3.9 39.1
09:45 1024 30.24 853 25.19 21.8 71.3 29 3.4 38.1
09:50 1024 30.24 853 25.19 22.1 71.8 30 3.9 39.1
09:55 1024 30.24 853 25.19 21.4 70.5 29 2.9 37.2
10:00 1024 30.24 853 25.19 21.4 70.5 30 3.4 38.1
10:05 1024 30.24 853 25.19 21.7 71 30 3.5 38.3
10:10 1024 30.24 853 25.19 21.5 70.8 30 3.6 38.5
10:15 1024 30.24 853 25.19 21.5 70.7 31 3.7 38.6
10:20 1024 30.24 853 25.19 22 71.5 29 3.4 38.2
10:25 1024 30.24 853 25.19 22.5 72.6 28 3.2 37.7
10:30 1024 30.24 853 25.19 22.7 72.8 27 3 37.5
10:35 1024 30.24 853 25.19 23.8 74.8 25 2.7 36.9
10:40 1024 30.24 853 25.19 23.2 73.8 27 3.4 38.1
10:45 1024 30.24 853 25.19 23.3 73.9 25 2.5 36.5
10:50 1024 30.24 853 25.19 24.1 75.5 25 3.1 37.6
10:55 1024 30.24 853 25.19 24.6 76.2 25 3.3 37.9
11:00 1024 30.24 853 25.19 24.6 76.3 24 3.1 37.5
11:05 1024 30.24 853 25.19 24.8 76.7 23 2.5 36.4
11:10 1024 30.24 853 25.19 24.8 76.7 23 2.7 36.9
11:15 1024 30.24 853 25.19 24.1 75.4 24 2.7 36.8
11:20 1024 30.24 853 25.19 24.1 75.4 24 2.5 36.6
11:25 1024 30.24 853 25.19 24.5 76 24 2.5 36.6
11:30 1024 30.24 853 25.19 24.6 76.3 23 2.1 35.8
11:35 1024 30.24 853 25.19 25.8 78.4 21 2 35.6
11:40 1024 30.24 853 25.19 25.9 78.5 22 2.8 37.1
11:45 1024 30.24 853 25.19 25.4 77.8 21 2.1 35.7
11:50 1024 30.24 853 25.19 26 78.7 22 2.6 36.6
11:55 1024 30.24 853 25.19 25.5 77.9 23 3.1 37.5
12:00 1024 30.24 853 25.19 25.2 77.4 23 2.9 37.1
12:05 1024 30.24 853 25.19 25.5 77.9 23 3.2 37.8
12:10 1024 30.24 853 25.19 26.2 79.1 21 2.2 36
12:15 1024 30.24 853 25.19 26.4 79.6 23 3.8 38.8
12:20 1024 30.24 853 25.19 25.8 78.4 23 3.3 38
12:25 1024 30.24 853 25.19 26.2 79.1 21 2.5 36.5
12:30 1023 30.21 853 25.19 26.7 80.1 19 1.7 35
12:35 1023 30.21 853 25.19 26.8 80.3 21 2.8 37
12:40 1023 30.21 853 25.19 26.3 79.3 22 3.2 37.7
12:45 1023 30.21 853 25.19 26.2 79.1 22 2.8 37.1
12:50 1023 30.21 852 25.16 26.9 80.4 21 3 37.4
12:55 1023 30.21 852 25.16 27.6 81.7 20 2.6 36.7
13:00 1023 30.21 852 25.16 28.2 82.8 18 2.3 36.2
13:05 1023 30.21 852 25.16 28.7 83.6 19 2.8 37
13:10 1023 30.21 852 25.16 27.9 82.3 19 2.7 36.8
13:15 1023 30.21 852 25.16 27.7 81.9 20 3 37.5
13:20 1023 30.21 852 25.16 28.6 83.4 18 2.6 36.7
13:25 1023 30.21 852 25.16 28.7 83.6 18 2.2 36
13:30 1023 30.21 852 25.16 29.2 84.6 17 2.1 35.7
13:35 1023 30.21 852 25.16 28.4 83 16 0.5 32.9
13:40 1023 30.21 852 25.16 28.6 83.4 15 -0 32
13:45 1023 30.21 852 25.16 28.8 83.9 16 0.4 32.8
13:50 1023 30.21 852 25.16 29.1 84.4 17 1.9 35.4
13:55 1023 30.21 852 25.16 29.7 85.5 14 0.2 32.3
14:00 1023 30.21 852 25.16 30.1 86.2 15 1 33.8
14:05 1023 30.21 852 25.16 29.9 85.8 13 -0.6 30.9
14:10 1023 30.21 852 25.16 29.8 85.6 15 1.1 34.1
14:15 1023 30.21 852 25.16 28.8 83.8 14 -0.6 31
14:20 1023 30.21 852 25.16 29.6 85.3 14 0 32
14:25 1023 30.21 852 25.16 30.1 86.1 14 0.4 32.7
14:30 1022 30.18 852 25.16 30.2 86.4 15 0.7 33.3
14:35 1022 30.18 852 25.16 30 86 14 -0 31.9
14:40 1022 30.18 852 25.16 29.7 85.5 14 -0.5 31.1
14:45 1022 30.18 852 25.16 29.9 85.8 13 -1.4 29.4
14:50 1022 30.18 852 25.16 29.8 85.6 13 -1.3 29.6
14:55 1022 30.18 852 25.16 30.7 87.3 13 -0.5 31.1
15:00 1022 30.18 852 25.16 29.9 85.8 14 -0.4 31.2
15:05 1022 30.18 852 25.16 29.6 85.3 13 -1.5 29.3
15:10 1022 30.18 852 25.16 29.7 85.5 13 -1.3 29.7
15:15 1022 30.18 851 25.13 29.3 84.7 13 -1.3 29.7
15:20 1022 30.18 851 25.13 29.9 85.7 13 -0.7 30.8
15:25 1022 30.18 851 25.13 30.4 86.7 13 -0.5 31.1
15:30 1022 30.18 851 25.13 30.8 87.4 12 -1.1 30.1
15:35 1022 30.18 851 25.13 30.7 87.2 13 -0.4 31.3
15:40 1022 30.18 851 25.13 30.3 86.5 13 -0.6 30.9
15:45 1022 30.18 851 25.13 30.3 86.6 12 -1.4 29.4
15:50 1022 30.18 851 25.13 30.3 86.5 12 -1.6 29.1
15:55 1022 30.18 851 25.13 30.3 86.5 13 -1.3 29.6
16:00 1022 30.18 851 25.13 29.5 85.1 14 -0.9 30.4
16:05 1022 30.18 851 25.13 29.9 85.8 13 -1.3 29.7
16:10 1022 30.18 851 25.13 30.1 86.2 13 -0.8 30.6
16:15 1022 30.18 851 25.13 30.7 87.3 13 -0.4 31.3
16:20 1022 30.18 851 25.13 30.9 87.6 12 -1.1 30
16:25 1022 30.18 851 25.13 30.2 86.3 13 -1 30.2
16:30 1022 30.18 851 25.13 29.5 85.1 13 -1.1 30
16:35 1022 30.18 851 25.13 30.2 86.3 12 -1.6 29.2
16:40 1022 30.18 851 25.13 30.3 86.6 13 -0.6 31
16:45 1022 30.18 851 25.13 30.7 87.2 12 -1.1 30
16:50 1022 30.18 851 25.13 31.1 87.9 13 0.1 32.2
16:55 1022 30.18 851 25.13 31.1 88 13 -0 32
17:00 1022 30.18 851 25.13 31 87.7 13 -0.1 31.8
17:05 1022 30.18 851 25.13 31.2 88.1 13 -0.5 31
17:10 1022 30.18 851 25.13 30.8 87.4 13 -0.6 31
17:15 1022 30.18 851 25.13 31.2 88.1 13 -0.3 31.5
17:20 1022 30.18 851 25.13 31 87.7 13 -0.3 31.4
17:25 1022 30.18 851 25.13 30.2 86.3 14 -0.3 31.5
17:30 1022 30.18 851 25.13 30.1 86.1 14 -0.2 31.7
17:35 1022 30.18 851 25.13 29.8 85.7 14 -0.7 30.8
17:40 1022 30.18 851 25.13 30.1 86.1 14 -0 32
17:45 1022 30.18 851 25.13 30 86.1 13 -0.8 30.6
17:50 1022 30.18 851 25.13 30.7 87.2 13 -0.6 31
17:55 1022 30.18 851 25.13 31 87.8 13 -0.8 30.6
18:00 1022 30.18 851 25.13 30.5 87 13 -0.2 31.6
18:05 1022 30.18 851 25.13 30.8 87.4 13 -0.7 30.8
18:10 1022 30.18 851 25.13 31 87.8 12 -1.1 30
18:15 1022 30.18 851 25.13 30.4 86.7 14 0.1 32.3
18:20 1022 30.18 851 25.13 30.2 86.4 14 -0.2 31.6
18:25 1022 30.18 851 25.13 30.3 86.6 14 0 32
18:30 1022 30.18 851 25.13 30.1 86.2 14 -0.2 31.6
18:35 1022 30.18 851 25.13 30.2 86.4 14 0.4 32.7
18:40 1022 30.18 851 25.13 30.7 87.2 13 -0.2 31.6
18:45 1022 30.18 851 25.13 30.7 87.3 13 -0.4 31.3
18:50 1022 30.18 851 25.13 30.8 87.4 13 -0.2 31.7
18:55 1022 30.18 851 25.13 30.5 87 14 0.3 32.6
19:00 1022 30.18 851 25.13 30.1 86.1 14 0 32
19:05 1022 30.18 851 25.13 29.6 85.4 15 0.3 32.5
19:10 1022 30.18 851 25.13 29.4 85 14 -0.1 31.8
19:15 1022 30.18 851 25.13 29.2 84.6 17 1.8 35.2
19:20 1022 30.18 851 25.13 28.8 83.8 17 1.6 35
19:25 1022 30.18 851 25.13 28.5 83.3 17 1.3 34.3
19:30 1022 30.18 851 25.13 28.4 83.1 17 1.5 34.7
19:35 1022 30.18 851 25.13 28.2 82.8 21 4.1 39.3
19:40 1022 30.18 851 25.13 28 82.5 19 2.3 36.1
19:45 1022 30.18 851 25.13 27.8 82 21 4.1 39.4
19:50 1022 30.18 851 25.13 27.5 81.4 24 5.2 41.3
19:55 1022 30.18 851 25.13 27 80.6 25 5.4 41.7
20:00 1022 30.18 851 25.13 26.4 79.6 27 6.4 43.5
20:05 1022 30.18 851 25.13 25.9 78.6 25 4.5 40.2
20:10 1022 30.18 851 25.13 25.2 77.3 27 4.9 40.9
20:15 1022 30.18 851 25.13 24.9 76.8 27 4.9 40.8
20:20 1022 30.18 851 25.13 24.7 76.4 27 4.9 40.8
20:25 1022 30.18 851 25.13 24.4 75.9 30 6 42.9
20:30 1022 30.18 851 25.13 24.1 75.4 28 4.9 40.8
20:35 1022 30.18 851 25.13 23.9 74.9 29 4.8 40.6
20:40 1022 30.18 851 25.13 23.7 74.6 29 4.7 40.4
20:45 1022 30.18 851 25.13 23.5 74.3 30 5 41.1
20:50 1022 30.18 851 25.13 23.4 74.1 28 4.1 39.5
20:55 1022 30.18 851 25.13 23.1 73.6 32 5.9 42.6
21:00 1022 30.18 851 25.13 22.1 71.8 33 5.4 41.7
21:05 1022 30.18 851 25.13 22 71.6 31 4.2 39.6
21:10 1022 30.18 851 25.13 22.2 72 33 5.3 41.6
21:15 1022 30.18 851 25.13 21.9 71.3 31 4.2 39.5
21:20 1022 30.18 852 25.16 21.8 71.3 30 3.8 38.9
21:25 1022 30.18 852 25.16 21.9 71.4 30 3.7 38.6
21:30 1022 30.18 852 25.16 21.7 71.1 30 3.8 38.8
21:35 1022 30.18 852 25.16 21.5 70.6 31 3.8 38.9
21:40 1023 30.21 852 25.16 21.1 69.9 31 3.7 38.6
21:45 1023 30.21 852 25.16 20.8 69.4 32 3.5 38.4
21:50 1023 30.21 852 25.16 20.7 69.3 31 3.2 37.7
21:55 1023 30.21 852 25.16 20.7 69.3 31 3.2 37.7
22:00 1023 30.21 852 25.16 20.7 69.3 31 3.2 37.8
22:05 1023 30.21 852 25.16 20.4 68.7 32 3.3 38
22:10 1023 30.21 852 25.16 20.1 68.2 31 2.6 36.7
22:15 1023 30.21 852 25.16 20.4 68.7 30 2.6 36.8
22:20 1023 30.21 852 25.16 20.5 68.9 30 2.7 36.8
22:25 1023 30.21 852 25.16 20.3 68.5 31 2.7 36.9
22:30 1023 30.21 852 25.16 20.1 68.2 31 2.6 36.7
22:35 1023 30.21 852 25.16 20 67.9 32 2.8 37
22:40 1023 30.21 852 25.16 20 67.9 30 2 35.7
22:45 1023 30.21 852 25.16 20.4 68.8 28 1.5 34.8
22:50 1023 30.21 852 25.16 20.8 69.5 28 1.7 35.1
22:55 1023 30.21 852 25.16 20.6 69.1 29 2.1 35.8
23:00 1023 30.21 852 25.16 20.1 68.3 30 2.2 36
23:05 1023 30.21 852 25.16 19.9 67.9 30 2 35.6
23:10 1023 30.21 852 25.16 19.8 67.7 30 1.9 35.4
23:15 1023 30.21 852 25.16 19.8 67.6 29 1.5 34.7
23:20 1023 30.21 852 25.16 19.9 67.8 28 1.1 34
23:25 1023 30.21 852 25.16 20 68.1 28 1.2 34.2
23:30 1023 30.21 852 25.16 20.1 68.2 27 0.9 33.6
23:35 1023 30.21 852 25.16 20.1 68.1 29 1.6 34.9
23:40 1023 30.21 852 25.16 19.6 67.3 29 1.3 34.3
23:45 1023 30.21 852 25.16 19.5 67.1 29 1.1 33.9
23:50 1023 30.21 852 25.16 19.6 67.3 28 1 33.7
23:55 1023 30.21 852 25.16 19.7 67.5 29 1.2 34.2
24:00 1023 30.21 852 25.16 19.5 67 31 1.9 35.5